createdAt,value
2023-06-10T00:01:53.607Z,73.10
2023-06-10T00:04:30.546Z,73.10
2023-06-10T00:07:13.655Z,73.20
2023-06-10T00:09:45.629Z,73.10
2023-06-10T00:12:14.636Z,73.10
2023-06-10T00:14:43.214Z,73.20
2023-06-10T00:17:15.840Z,73.20
2023-06-10T00:19:48.438Z,73.20
2023-06-10T00:22:26.158Z,73.40
2023-06-10T00:25:11.059Z,73.40
2023-06-10T00:27:41.447Z,73.40
2023-06-10T00:30:13.019Z,73.40
2023-06-10T00:32:41.609Z,73.30
2023-06-10T00:35:21.295Z,73.40
2023-06-10T00:37:53.748Z,73.40
2023-06-10T00:40:24.100Z,73.50
2023-06-10T00:42:54.653Z,73.60
2023-06-10T00:45:26.526Z,73.60
2023-06-10T00:47:55.565Z,73.70
2023-06-10T00:50:27.600Z,73.80
2023-06-10T00:53:00.649Z,73.80
2023-06-10T00:55:30.196Z,74.00
2023-06-10T00:57:58.672Z,74.00
2023-06-10T01:00:29.043Z,74.10
2023-06-10T01:02:58.367Z,74.10
2023-06-10T01:05:30.875Z,74.10
2023-06-10T01:08:04.156Z,74.20
2023-06-10T01:10:38.164Z,74.20
2023-06-10T01:13:15.827Z,74.30
2023-06-10T01:15:45.059Z,74.20
2023-06-10T01:18:16.427Z,74.20
2023-06-10T01:20:51.321Z,74.20
2023-06-10T01:23:34.294Z,74.30
2023-06-10T01:26:08.826Z,74.30
2023-06-10T01:28:57.455Z,74.30
2023-06-10T01:31:40.374Z,74.40
2023-06-10T01:34:13.858Z,74.50
2023-06-10T01:36:44.176Z,74.40
2023-06-10T01:39:17.682Z,74.40
2023-06-10T01:41:49.466Z,74.30
2023-06-10T01:44:22.214Z,74.40
2023-06-10T01:46:50.909Z,74.30
2023-06-10T01:49:23.284Z,74.40
2023-06-10T01:51:52.364Z,74.50
2023-06-10T01:54:23.172Z,74.50
2023-06-10T01:56:52.782Z,74.70
2023-06-10T01:59:22.746Z,74.60
2023-06-10T02:01:51.462Z,74.50
2023-06-10T02:04:22.471Z,74.50
2023-06-10T02:07:00.499Z,74.50
2023-06-10T02:09:36.418Z,74.50
2023-06-10T02:12:09.467Z,74.50
2023-06-10T02:14:38.327Z,74.60
2023-06-10T02:17:15.914Z,74.70
2023-06-10T02:19:53.729Z,74.60
2023-06-10T02:22:28.641Z,74.70
2023-06-10T02:25:02.968Z,74.70
2023-06-10T02:27:33.959Z,74.80
2023-06-10T02:30:04.020Z,74.80
2023-06-10T02:32:39.176Z,74.80
2023-06-10T02:35:11.451Z,74.90
2023-06-10T02:37:42.002Z,74.80
2023-06-10T02:40:14.837Z,74.90
2023-06-10T02:42:46.098Z,74.90
2023-06-10T02:45:17.727Z,74.80
2023-06-10T02:47:47.133Z,75.10
2023-06-10T02:50:23.993Z,75.00
2023-06-10T02:53:07.656Z,75.00
2023-06-10T02:55:42.620Z,75.10
2023-06-10T02:58:15.243Z,75.10
2023-06-10T03:00:46.827Z,75.10
2023-06-10T03:03:17.521Z,75.20
2023-06-10T03:06:03.925Z,75.20
2023-06-10T03:08:41.360Z,75.50
2023-06-10T03:11:19.249Z,75.50
2023-06-10T03:13:50.473Z,75.50
2023-06-10T03:16:22.013Z,75.60
2023-06-10T03:18:54.109Z,75.70
2023-06-10T03:21:28.236Z,75.70
2023-06-10T03:23:59.364Z,75.70
2023-06-10T03:26:29.775Z,75.70
2023-06-10T03:28:59.330Z,75.80
2023-06-10T03:31:30.773Z,75.70
2023-06-10T03:34:00.651Z,75.70
2023-06-10T03:36:31.306Z,75.70
2023-06-10T03:39:00.094Z,75.70
2023-06-10T03:41:31.503Z,75.60
2023-06-10T03:44:01.767Z,75.70
2023-06-10T03:46:33.414Z,75.60
2023-06-10T03:49:03.554Z,75.60
2023-06-10T03:51:33.294Z,75.50
2023-06-10T03:54:01.690Z,75.60
2023-06-10T03:56:33.979Z,75.50
2023-06-10T03:59:06.319Z,75.40
2023-06-10T04:01:41.939Z,75.30
2023-06-10T04:04:11.971Z,75.30
2023-06-10T04:06:45.120Z,75.30
2023-06-10T04:09:14.480Z,75.10
2023-06-10T04:11:44.971Z,74.90
2023-06-10T04:14:14.865Z,74.50
2023-06-10T04:16:44.906Z,74.20
2023-06-10T04:19:16.648Z,73.80
2023-06-10T04:21:46.257Z,73.40
2023-06-10T04:24:15.029Z,73.10
2023-06-10T04:26:47.570Z,72.90
2023-06-10T04:29:18.472Z,72.60
2023-06-10T04:31:48.751Z,72.40
2023-06-10T04:34:18.954Z,72.20
2023-06-10T04:36:51.001Z,72.20
2023-06-10T04:39:21.221Z,71.90
2023-06-10T04:41:54.145Z,71.30
2023-06-10T04:44:26.771Z,70.50
2023-06-10T04:46:57.325Z,69.90
2023-06-10T04:49:26.253Z,69.40
2023-06-10T04:51:56.235Z,68.60
2023-06-10T04:54:25.840Z,68.60
2023-06-10T04:57:00.547Z,68.60
2023-06-10T04:59:31.090Z,67.70
2023-06-10T05:02:01.778Z,66.70
2023-06-10T05:04:33.534Z,66.10
2023-06-10T05:07:03.356Z,65.30
2023-06-10T05:09:34.566Z,64.30
2023-06-10T05:12:11.599Z,63.10
2023-06-10T05:14:40.603Z,61.20
2023-06-10T05:17:13.842Z,61.00
2023-06-10T05:19:42.919Z,60.60
2023-06-10T05:22:12.087Z,61.00
2023-06-10T05:24:43.139Z,60.70
2023-06-10T05:27:14.272Z,59.80
2023-06-10T05:29:43.013Z,59.60
2023-06-10T05:32:12.651Z,58.60
2023-06-10T05:34:41.618Z,58.10
2023-06-10T05:37:10.593Z,57.60
2023-06-10T05:39:40.502Z,57.10
2023-06-10T05:42:10.508Z,55.80
2023-06-10T05:44:41.550Z,54.90
2023-06-10T05:47:11.740Z,54.90
2023-06-10T05:49:41.945Z,53.90
2023-06-10T05:52:11.033Z,53.00
2023-06-10T05:54:42.944Z,52.80
2023-06-10T05:57:13.198Z,52.50
2023-06-10T05:59:43.977Z,52.00
2023-06-10T06:02:16.690Z,50.90
2023-06-10T06:04:49.492Z,49.90
2023-06-10T06:07:18.306Z,49.30
2023-06-10T06:09:46.930Z,49.40
2023-06-10T06:12:16.521Z,49.70
2023-06-10T06:14:48.122Z,49.20
2023-06-10T06:17:16.275Z,49.10
2023-06-10T06:19:44.643Z,48.70
2023-06-10T06:22:13.466Z,48.40
2023-06-10T06:24:45.599Z,46.70
2023-06-10T06:27:16.394Z,47.70
2023-06-10T06:29:47.750Z,47.30
2023-06-10T06:32:18.398Z,45.80
2023-06-10T06:34:47.416Z,46.00
2023-06-10T06:37:17.945Z,47.00
2023-06-10T06:39:50.403Z,46.40
2023-06-10T06:42:18.920Z,45.50
2023-06-10T06:45:15.460Z,44.70
2023-06-10T06:47:44.573Z,43.90
2023-06-10T06:50:13.541Z,43.40
2023-06-10T06:52:43.589Z,42.10
2023-06-10T06:55:12.081Z,42.40
2023-06-10T06:57:40.684Z,42.50
2023-06-10T07:00:10.518Z,42.10
2023-06-10T07:02:41.685Z,41.50
2023-06-10T07:05:11.101Z,40.40
2023-06-10T07:07:40.564Z,40.50
2023-06-10T07:10:11.037Z,40.20
2023-06-10T07:12:39.724Z,39.70
2023-06-10T07:15:11.447Z,39.90
2023-06-10T07:17:44.442Z,40.00
2023-06-10T07:20:16.259Z,39.50
2023-06-10T07:22:46.895Z,39.50
2023-06-10T07:25:17.403Z,39.20
2023-06-10T07:27:47.093Z,38.60
2023-06-10T07:30:16.842Z,38.70
2023-06-10T07:32:47.390Z,38.40
2023-06-10T07:35:17.250Z,38.00
2023-06-10T07:37:48.291Z,38.40
2023-06-10T07:40:17.188Z,38.60
2023-06-10T07:42:47.900Z,38.40
2023-06-10T07:45:17.568Z,37.80
2023-06-10T07:47:50.776Z,37.70
2023-06-10T07:50:19.333Z,36.90
2023-06-10T07:52:47.799Z,36.30
2023-06-10T07:55:16.657Z,36.20
2023-06-10T07:57:48.368Z,36.30
2023-06-10T08:00:20.218Z,35.70
2023-06-10T08:02:50.545Z,35.70
2023-06-10T08:05:21.712Z,34.80
2023-06-10T08:07:52.641Z,35.90
2023-06-10T08:10:21.231Z,36.40
2023-06-10T08:12:51.948Z,35.40
2023-06-10T08:15:21.607Z,34.10
2023-06-10T08:17:51.562Z,34.00
2023-06-10T08:20:20.251Z,34.40
2023-06-10T08:22:48.609Z,34.70
2023-06-10T08:25:17.133Z,33.80
2023-06-10T08:27:45.490Z,33.10
2023-06-10T08:30:16.323Z,33.30
2023-06-10T08:32:45.745Z,33.50
2023-06-10T08:35:16.471Z,33.10
2023-06-10T08:37:45.018Z,32.70
2023-06-10T08:40:14.953Z,32.70
2023-06-10T08:42:47.993Z,32.40
2023-06-10T08:45:21.566Z,32.40
2023-06-10T08:47:53.200Z,32.40
2023-06-10T08:50:25.363Z,31.50
2023-06-10T08:53:00.718Z,31.80
2023-06-10T08:55:34.445Z,31.50
2023-06-10T08:58:06.013Z,32.00
2023-06-10T09:00:34.770Z,32.30
2023-06-10T09:03:05.497Z,33.20
2023-06-10T09:05:38.350Z,32.80
2023-06-10T09:08:10.369Z,32.30
2023-06-10T09:10:39.080Z,32.70
2023-06-10T09:13:08.582Z,33.10
2023-06-10T09:15:43.186Z,33.40
2023-06-10T09:18:12.570Z,34.50
2023-06-10T09:20:45.964Z,34.20
2023-06-10T09:23:18.153Z,34.50
2023-06-10T09:25:46.980Z,34.40
2023-06-10T09:28:16.982Z,34.10
2023-06-10T09:30:47.174Z,34.00
2023-06-10T09:33:17.310Z,34.20
2023-06-10T09:35:51.807Z,34.70
2023-06-10T09:38:23.321Z,34.60
2023-06-10T09:40:53.391Z,35.40
2023-06-10T09:43:22.609Z,35.40
2023-06-10T09:45:54.200Z,34.60
2023-06-10T09:48:25.403Z,34.80
2023-06-10T09:50:57.581Z,35.40
2023-06-10T09:53:26.744Z,34.40
2023-06-10T09:55:56.209Z,34.70
2023-06-10T09:58:37.432Z,33.70
2023-06-10T10:01:10.664Z,34.20
2023-06-10T10:03:47.783Z,32.50
2023-06-10T10:06:22.010Z,31.80
2023-06-10T10:08:52.214Z,31.30
2023-06-10T10:11:23.222Z,30.10
2023-06-10T10:13:53.771Z,29.80
2023-06-10T10:16:25.707Z,29.10
2023-06-10T10:18:58.808Z,29.80
2023-06-10T10:21:32.677Z,29.30
2023-06-10T10:24:06.280Z,29.50
2023-06-10T10:26:34.471Z,30.00
2023-06-10T10:29:13.215Z,30.80
2023-06-10T10:31:45.847Z,32.40
2023-06-10T10:34:19.087Z,31.50
2023-06-10T10:36:50.748Z,31.80
2023-06-10T10:39:21.151Z,31.10
2023-06-10T10:41:51.056Z,30.00
2023-06-10T10:44:20.665Z,30.10
2023-06-10T10:46:53.718Z,29.00
2023-06-10T10:49:24.876Z,29.50
2023-06-10T10:52:02.307Z,29.30
2023-06-10T10:54:33.013Z,30.70
2023-06-10T10:57:22.484Z,31.50
2023-06-10T11:00:01.465Z,30.60
2023-06-10T11:02:44.730Z,29.80
2023-06-10T11:05:16.735Z,29.60
2023-06-10T11:07:57.631Z,29.90
2023-06-10T11:10:33.897Z,30.30
2023-06-10T11:13:03.441Z,32.00
2023-06-10T11:15:33.010Z,32.90
2023-06-10T11:18:17.816Z,32.20
2023-06-10T11:21:00.591Z,31.40
2023-06-10T11:23:45.410Z,30.10
2023-06-10T11:26:37.022Z,29.00
2023-06-10T11:29:10.943Z,29.80
2023-06-10T11:31:52.712Z,31.50
2023-06-10T11:34:28.201Z,30.90
2023-06-10T11:36:58.231Z,30.00
2023-06-10T11:39:31.010Z,30.50
2023-06-10T11:42:01.536Z,30.80
2023-06-10T11:44:34.144Z,30.90
2023-06-10T11:47:02.649Z,31.20
2023-06-10T11:49:31.646Z,30.30
2023-06-10T11:52:06.976Z,30.30
2023-06-10T11:54:40.147Z,30.60
2023-06-10T11:57:09.672Z,31.70
2023-06-10T11:59:38.332Z,31.50
2023-06-10T12:02:07.392Z,31.20
2023-06-10T12:04:36.322Z,29.80
2023-06-10T12:07:05.276Z,29.20
2023-06-10T12:09:35.124Z,29.00
2023-06-10T12:12:09.877Z,28.50
2023-06-10T12:15:12.440Z,28.00
2023-06-10T12:17:43.395Z,27.90
2023-06-10T12:20:31.810Z,28.80
2023-06-10T12:23:02.818Z,30.30
2023-06-10T12:25:32.871Z,30.00
2023-06-10T12:28:04.466Z,29.60
2023-06-10T12:30:35.303Z,29.00
2023-06-10T12:33:04.165Z,30.70
2023-06-10T12:35:35.140Z,31.30
2023-06-10T12:38:08.376Z,31.80
2023-06-10T12:40:41.772Z,30.40
2023-06-10T12:43:20.950Z,30.90
2023-06-10T12:45:49.460Z,31.60
2023-06-10T12:48:21.990Z,30.70
2023-06-10T12:50:54.688Z,30.80
2023-06-10T12:53:29.047Z,31.20
2023-06-10T12:55:59.752Z,31.40
2023-06-10T12:58:30.663Z,32.30
2023-06-10T13:01:00.947Z,31.40
2023-06-10T13:03:29.908Z,31.50
2023-06-10T13:05:59.078Z,31.80
2023-06-10T13:08:27.974Z,32.20
2023-06-10T13:10:56.243Z,33.20
2023-06-10T13:13:26.977Z,34.00
2023-06-10T13:15:57.705Z,33.50
2023-06-10T13:18:27.806Z,32.00
2023-06-10T13:20:57.830Z,33.20
2023-06-10T13:23:26.234Z,32.30
2023-06-10T13:25:54.560Z,32.90
2023-06-10T13:28:23.337Z,33.10
2023-06-10T13:30:52.498Z,32.10
2023-06-10T13:33:25.225Z,33.20
2023-06-10T13:35:54.054Z,33.30
2023-06-10T13:38:22.338Z,34.70
2023-06-10T13:40:52.672Z,34.20
2023-06-10T13:43:24.578Z,33.00
2023-06-10T13:45:54.523Z,33.80
2023-06-10T13:48:26.740Z,34.40
2023-06-10T13:50:57.212Z,33.90
2023-06-10T13:53:26.026Z,33.30
2023-06-10T13:56:00.276Z,33.80
2023-06-10T13:58:31.657Z,32.20
2023-06-10T14:01:01.576Z,31.50
2023-06-10T14:03:34.842Z,31.90
2023-06-10T14:06:05.685Z,31.40
2023-06-10T14:08:34.789Z,31.90
2023-06-10T14:11:06.063Z,31.30
2023-06-10T14:13:35.540Z,31.80
2023-06-10T14:16:05.094Z,32.70
2023-06-10T14:18:35.476Z,30.80
2023-06-10T14:21:03.862Z,30.50
2023-06-10T14:23:33.438Z,29.80
2023-06-10T14:26:02.209Z,29.50
2023-06-10T14:28:30.768Z,29.70
2023-06-10T14:30:59.176Z,29.50
2023-06-10T14:33:27.774Z,29.40
2023-06-10T14:35:57.401Z,29.00
2023-06-10T14:38:26.560Z,28.80
2023-06-10T14:40:57.338Z,28.70
2023-06-10T14:43:26.178Z,28.70
2023-06-10T14:45:56.527Z,28.50
2023-06-10T14:48:25.636Z,27.90
2023-06-10T14:50:56.743Z,28.50
2023-06-10T14:53:26.778Z,30.60
2023-06-10T14:55:57.751Z,31.90
2023-06-10T14:58:26.151Z,33.30
2023-06-10T15:00:54.686Z,34.00
2023-06-10T15:03:23.214Z,34.90
2023-06-10T15:05:52.209Z,35.70
2023-06-10T15:08:20.933Z,36.30
2023-06-10T15:10:51.575Z,36.80
2023-06-10T15:13:20.034Z,36.90
2023-06-10T15:15:48.364Z,38.00
2023-06-10T15:18:17.303Z,38.20
2023-06-10T15:20:47.265Z,39.30
2023-06-10T15:23:15.997Z,39.40
2023-06-10T15:25:44.671Z,39.20
2023-06-10T15:28:14.370Z,39.20
2023-06-10T15:30:43.014Z,39.20
2023-06-10T15:33:12.241Z,38.90
2023-06-10T15:35:40.628Z,38.70
2023-06-10T15:38:09.426Z,39.00
2023-06-10T15:40:39.325Z,38.30
2023-06-10T15:43:07.618Z,37.00
2023-06-10T15:45:37.999Z,36.90
2023-06-10T15:48:07.898Z,36.70
2023-06-10T15:50:38.617Z,35.40
2023-06-10T15:53:07.207Z,36.90
2023-06-10T15:55:36.990Z,36.30
2023-06-10T15:58:05.572Z,36.60
2023-06-10T16:00:34.190Z,37.40
2023-06-10T16:03:04.442Z,36.50
2023-06-10T16:05:34.870Z,35.60
2023-06-10T16:08:03.603Z,35.80
2023-06-10T16:10:32.146Z,34.00
2023-06-10T16:13:01.942Z,34.90
2023-06-10T16:15:30.859Z,34.80
2023-06-10T16:17:59.644Z,35.30
2023-06-10T16:20:29.372Z,35.00
2023-06-10T16:23:02.124Z,34.00
2023-06-10T16:25:30.880Z,34.00
2023-06-10T16:28:00.174Z,33.70
2023-06-10T16:30:29.302Z,35.70
2023-06-10T16:32:58.664Z,35.40
2023-06-10T16:35:31.433Z,34.00
2023-06-10T16:38:03.357Z,35.30
2023-06-10T16:40:35.415Z,33.90
2023-06-10T16:43:06.469Z,34.50
2023-06-10T16:45:34.988Z,35.10
2023-06-10T16:48:07.963Z,36.50
2023-06-10T16:50:38.188Z,37.60
2023-06-10T16:53:08.286Z,38.30
2023-06-10T16:55:40.145Z,39.60
2023-06-10T16:58:10.897Z,40.70
2023-06-10T17:00:40.457Z,41.80
2023-06-10T17:03:11.871Z,42.20
2023-06-10T17:05:45.355Z,42.70
2023-06-10T17:22:47.723Z,43.40
2023-06-10T17:25:30.114Z,44.10
2023-06-10T17:27:59.920Z,45.90
2023-06-10T17:30:31.441Z,48.10
2023-06-10T17:33:02.873Z,49.20
2023-06-10T17:35:31.574Z,49.50
2023-06-10T17:38:03.266Z,50.50
2023-06-10T17:40:35.444Z,51.40
2023-06-10T17:43:04.025Z,51.80
2023-06-10T17:45:35.483Z,51.80
2023-06-10T17:48:04.735Z,52.70
2023-06-10T17:50:35.503Z,53.00
2023-06-10T17:53:08.346Z,53.50
2023-06-10T17:55:40.877Z,53.40
2023-06-10T17:58:11.298Z,54.40
2023-06-10T18:00:40.204Z,55.00
2023-06-10T18:03:09.561Z,55.80
2023-06-10T18:05:39.161Z,57.00
2023-06-10T18:08:09.512Z,57.60
2023-06-10T18:10:38.066Z,58.40
2023-06-10T18:13:10.524Z,58.90
2023-06-10T18:15:42.431Z,59.50
2023-06-10T18:18:11.442Z,59.90
2023-06-10T18:20:41.332Z,60.10
2023-06-10T18:23:14.746Z,60.50
2023-06-10T18:25:47.733Z,60.90
2023-06-10T18:28:17.854Z,61.20
2023-06-10T18:30:49.706Z,61.50
2023-06-10T18:33:19.537Z,61.80
2023-06-10T18:35:48.287Z,61.70
2023-06-10T18:38:20.545Z,61.60
2023-06-10T22:41:27.487Z,70.90
2023-06-10T22:43:57.661Z,70.90
2023-06-10T22:46:26.996Z,70.90
2023-06-10T22:48:56.212Z,71.00
2023-06-10T22:51:26.009Z,71.00
2023-06-10T23:43:58.156Z,71.70
2023-06-10T23:46:29.640Z,71.90
2023-06-10T23:49:04.087Z,71.90
2023-06-10T23:51:40.194Z,71.80
2023-06-10T23:54:10.536Z,71.90
2023-06-10T23:56:44.178Z,71.90
2023-06-10T23:59:15.748Z,72.00
